METAR Data
IDs: Format: Raw Decoded Include TAF

Data at: 1716 UTC 21 Sep 2018

KJCT 211651Z AUTO 16005KT 10SM OVC019 25/23 A2999 RMK AO2 RAE04 SLP118 P0000 T02500233
KJCT 211551Z AUTO 14005KT 10SM -RA OVC016 24/23 A2999 RMK AO2 RAE02B37 SLP118 P0000 T02440233
KJCT 211534Z AUTO 15006KT 10SM OVC016 24/23 A2998 RMK AO2 RAE02 P0000 T02440233
KJCT 211451Z AUTO 16006KT 10SM -RA OVC014 24/23 A2998 RMK AO2 SLP114 P0002 60003 T02390228 51012
KJCT 211449Z AUTO 16005KT 10SM -RA OVC014 24/23 A2997 RMK AO2 P0002
KJCT 211351Z AUTO 17006G15KT 9SM -RA OVC018 24/22 A2997 RMK AO2 RAB35 SLP111 P0001 T02440222
KJCT 211251Z AUTO 15007KT 10SM OVC015 25/22 A2994 RMK AO2 SLP100 T02500222
KJCT 211151Z AUTO 16009KT 10SM OVC015 24/22 A2992 RMK AO2 SLP096 T02440222 10256 20244 53002
KJCT 211051Z AUTO 16011KT 10SM OVC021 25/23 A2992 RMK AO2 SLP092 T02500228
KJCT 211011Z AUTO 16009G17KT 10SM BKN016 OVC025 25/23 A2991 RMK AO2 T02500233
KJCT 210951Z AUTO 16009KT 10SM BKN014 OVC019 25/23 A2991 RMK AO2 SLP091 T02500233
KJCT 210943Z AUTO 16008KT 10SM OVC014 25/23 A2991 RMK AO2 T02500233
KJCT 210908Z AUTO 16009KT 10SM BKN017 OVC095 26/23 A2992 RMK AO2 T02560233
KJCT 210851Z AUTO 16009KT 10SM SCT017 OVC100 26/23 A2992 RMK AO2 SLP092 T02560233 56013
KJCT 210751Z AUTO 15010KT 10SM BKN019 OVC026 25/23 A2993 RMK AO2 SLP095 T02500233
KJCT 210721Z AUTO 14008KT 10SM SCT019 BKN027 25/23 A2993 RMK AO2 T02500228
KJCT 210651Z AUTO 14009KT 10SM SCT017 SCT023 25/23 A2994 RMK AO2 SLP100 T02500228
KJCT 210610Z AUTO 16006KT 10SM OVC015 25/23 A2996 RMK AO2 T02500233
KJCT 210551Z AUTO 14005KT 10SM OVC014 25/23 A2996 RMK AO2 SLP105 T02500233 10267 20244 403000228 51002
KJCT 210522Z AUTO 13005KT 10SM BKN014 25/23 A2996 RMK AO2 T02500228
KJCT 210451Z AUTO 13007KT 10SM CLR 25/23 A2996 RMK AO2 SLP106 T02500228
KJCT 210351Z AUTO 12004KT 10SM CLR 25/22 A2996 RMK AO2 SLP107 T02500222
KJCT 210251Z AUTO 14008KT 10SM FEW026 SCT031 OVC110 26/22 A2995 RMK AO2 SLP105 T02560217 53016
KJCT 210151Z AUTO 16004KT 10SM CLR 26/22 A2994 RMK AO2 SLP100 T02560217
KJCT 210051Z AUTO 18006KT 10SM FEW029 SCT041 27/22 A2991 RMK AO2 SLP092 T02670217
KJCT 202351Z AUTO 18009G17KT 10SM FEW038 27/22 A2990 RMK AO2 SLP089 T02670217 10300 20267 55001
KJCT 202251Z AUTO 18012G17KT 10SM SCT032 28/22 A2989 RMK AO2 SLP086 T02780217
KJCT 202151Z AUTO 20012KT 10SM FEW120 28/21 A2990 RMK AO2 SLP088 T02780211
KJCT 202051Z AUTO 19014G22KT 10SM FEW039 BKN060 BKN100 29/20 A2991 RMK AO2 LTG DSNT SE SLP090 T02890200 56022
KJCT 201951Z AUTO 19012G19KT 10SM BKN055 OVC070 29/19 A2993 RMK AO2 SLP096 T02890194
KJCT 201851Z AUTO 19012KT 10SM SCT075 29/20 A2995 RMK AO2 SLP103 T02940200
KJCT 201751Z AUTO 20011KT 10SM CLR 29/21 A2997 RMK AO2 SLP112 60000 T02890211 10289 20233 58006
KJCT 201651Z AUTO 19008G18KT 10SM FEW120 28/20 A2999 RMK AO2 SLP119 T02830200
KJCT 201551Z AUTO 16012G16KT 10SM FEW027 SCT033 27/21 A3000 RMK AO2 SLP121 T02720211
KJCT 201451Z AUTO 16012G16KT 10SM FEW029 26/21 A3000 RMK AO2 SLP121 60000 T02560211 53010
KJCT 201351Z AUTO 17007KT 10SM FEW022 SCT036 25/22 A2999 RMK AO2 SLP117 T02500222
KJCT 201251Z AUTO 16005KT 10SM FEW022 SCT028 BKN047 24/22 A2997 RMK AO2 RAB33E44 SLP110 P0000 T02390222
KJCT 201214Z AUTO 10003KT 10SM FEW023 FEW029 SCT035 23/23 A2996 RMK AO2 T02330228
KJCT 201151Z AUTO 09004KT 10SM BKN018 BKN023 BKN035 23/23 A2996 RMK AO2 LTG DSNT S SLP108 T02330228 10244 20228 55001
KJCT 201051Z AUTO 07003KT 10SM BKN024 BKN030 23/23 A2996 RMK AO2 SLP106 T02330228
KJCT 201037Z AUTO 09004KT 10SM SCT021 BKN028 23/23 A2996 RMK AO2 T02330228
KJCT 201004Z AUTO 10005KT 10SM FEW021 SCT029 SCT055 23/22 A2996 RMK AO2 T02330222
KJCT 200951Z AUTO 12004KT 10SM BKN021 BKN055 23/22 A2996 RMK AO2 SLP107 T02330222
KJCT 200942Z AUTO 15003KT 10SM BKN021 BKN055 23/22 A2996 RMK AO2 T02330222
KJCT 200918Z AUTO 09003KT 10SM SCT017 23/22 A2997 RMK AO2 T02280222
KJCT 200901Z AUTO 05004KT 10SM BKN018 23/22 A2996 RMK AO2 T02280222
KJCT 200851Z AUTO 09005KT 10SM SCT016 23/22 A2997 RMK AO2 SLP108 T02280222 58005
KJCT 200751Z AUTO 13006KT 10SM CLR 23/22 A2998 RMK AO2 SLP112 T02330217
KJCT 200651Z AUTO 16007KT 10SM CLR 24/22 A2998 RMK AO2 SLP112 T02390217
KJCT 200551Z AUTO 16006KT 10SM CLR 24/21 A2998 RMK AO2 SLP115 T02390211 10294 20228 403170217 51008